sensor_id;sensor_type;location;lat;lon;timestamp;temperature;humidity
6114;DHT22;3087;48.392;10.836;2022-10-16T00:00:40;16.20;99.90
6114;DHT22;3087;48.392;10.836;2022-10-16T00:03:06;16.30;99.90
6114;DHT22;3087;48.392;10.836;2022-10-16T00:05:32;16.40;99.90
6114;DHT22;3087;48.392;10.836;2022-10-16T00:07:58;16.40;99.90
6114;DHT22;3087;48.392;10.836;2022-10-16T00:10:23;16.50;99.90
6114;DHT22;3087;48.392;10.836;2022-10-16T00:12:49;16.40;99.90
6114;DHT22;3087;48.392;10.836;2022-10-16T00:15:15;16.20;99.90
6114;DHT22;3087;48.392;10.836;2022-10-16T00:17:41;16.20;99.90
6114;DHT22;3087;48.392;10.836;2022-10-16T00:20:06;16.10;99.90
6114;DHT22;3087;48.392;10.836;2022-10-16T00:22:33;16.10;99.90
6114;DHT22;3087;48.392;10.836;2022-10-16T00:24:58;16.20;99.90
6114;DHT22;3087;48.392;10.836;2022-10-16T00:27:24;16.20;99.90
6114;DHT22;3087;48.392;10.836;2022-10-16T00:29:50;16.20;99.90
6114;DHT22;3087;48.392;10.836;2022-10-16T00:32:17;16.30;99.90
6114;DHT22;3087;48.392;10.836;2022-10-16T00:34:43;16.40;99.90
6114;DHT22;3087;48.392;10.836;2022-10-16T00:37:09;16.50;99.90
6114;DHT22;3087;48.392;10.836;2022-10-16T00:39:34;16.60;99.90
6114;DHT22;3087;48.392;10.836;2022-10-16T00:42:00;16.60;99.90
6114;DHT22;3087;48.392;10.836;2022-10-16T00:47:10;16.40;99.90
6114;DHT22;3087;48.392;10.836;2022-10-16T00:49:36;16.40;99.90
6114;DHT22;3087;48.392;10.836;2022-10-16T00:52:02;16.30;99.90
6114;DHT22;3087;48.392;10.836;2022-10-16T00:54:30;16.20;99.90
6114;DHT22;3087;48.392;10.836;2022-10-16T00:57:00;16.10;99.90
6114;DHT22;3087;48.392;10.836;2022-10-16T00:59:49;16.00;99.90
6114;DHT22;3087;48.392;10.836;2022-10-16T01:02:15;15.90;99.90
6114;DHT22;3087;48.392;10.836;2022-10-16T01:04:47;15.90;99.90
6114;DHT22;3087;48.392;10.836;2022-10-16T01:15:25;15.80;99.90
6114;DHT22;3087;48.392;10.836;2022-10-16T01:20:33;15.80;99.90
6114;DHT22;3087;48.392;10.836;2022-10-16T01:23:27;15.80;99.90
6114;DHT22;3087;48.392;10.836;2022-10-16T01:31:33;15.90;99.90
6114;DHT22;3087;48.392;10.836;2022-10-16T01:34:10;15.90;99.90
6114;DHT22;3087;48.392;10.836;2022-10-16T01:36:45;15.90;99.90
6114;DHT22;3087;48.392;10.836;2022-10-16T01:39:12;15.80;99.90
6114;DHT22;3087;48.392;10.836;2022-10-16T01:41:45;15.80;99.90
6114;DHT22;3087;48.392;10.836;2022-10-16T01:44:22;15.70;99.90
6114;DHT22;3087;48.392;10.836;2022-10-16T01:46:52;15.60;99.90
6114;DHT22;3087;48.392;10.836;2022-10-16T01:49:19;15.60;99.90
6114;DHT22;3087;48.392;10.836;2022-10-16T01:51:48;15.50;99.90
6114;DHT22;3087;48.392;10.836;2022-10-16T01:54:16;15.60;99.90
6114;DHT22;3087;48.392;10.836;2022-10-16T01:56:43;15.60;99.90
6114;DHT22;3087;48.392;10.836;2022-10-16T01:59:13;15.70;99.90
6114;DHT22;3087;48.392;10.836;2022-10-16T02:01:42;15.70;99.90
6114;DHT22;3087;48.392;10.836;2022-10-16T02:04:17;15.60;99.90
6114;DHT22;3087;48.392;10.836;2022-10-16T02:06:44;15.60;99.90
6114;DHT22;3087;48.392;10.836;2022-10-16T02:09:10;15.50;99.90
6114;DHT22;3087;48.392;10.836;2022-10-16T02:11:36;15.40;99.90
6114;DHT22;3087;48.392;10.836;2022-10-16T02:14:04;15.40;99.90
6114;DHT22;3087;48.392;10.836;2022-10-16T02:16:36;15.30;99.90
6114;DHT22;3087;48.392;10.836;2022-10-16T02:19:02;15.20;99.90
6114;DHT22;3087;48.392;10.836;2022-10-16T02:21:44;15.10;99.90
6114;DHT22;3087;48.392;10.836;2022-10-16T02:24:46;15.00;99.90
6114;DHT22;3087;48.392;10.836;2022-10-16T02:29:53;15.00;99.90
6114;DHT22;3087;48.392;10.836;2022-10-16T02:32:25;15.10;99.90
6114;DHT22;3087;48.392;10.836;2022-10-16T02:34:56;15.00;99.90
6114;DHT22;3087;48.392;10.836;2022-10-16T02:37:24;15.00;99.90
6114;DHT22;3087;48.392;10.836;2022-10-16T02:39:51;15.00;99.90
6114;DHT22;3087;48.392;10.836;2022-10-16T02:42:17;15.10;99.90
6114;DHT22;3087;48.392;10.836;2022-10-16T02:47:09;15.10;99.90
6114;DHT22;3087;48.392;10.836;2022-10-16T02:49:35;15.10;99.90
6114;DHT22;3087;48.392;10.836;2022-10-16T02:52:00;15.20;99.90
6114;DHT22;3087;48.392;10.836;2022-10-16T02:54:26;15.20;99.90
6114;DHT22;3087;48.392;10.836;2022-10-16T02:56:51;15.20;99.90
6114;DHT22;3087;48.392;10.836;2022-10-16T03:04:09;15.40;99.90
6114;DHT22;3087;48.392;10.836;2022-10-16T03:06:35;15.50;99.90
6114;DHT22;3087;48.392;10.836;2022-10-16T03:09:01;15.60;99.90
6114;DHT22;3087;48.392;10.836;2022-10-16T03:11:26;15.70;99.90
6114;DHT22;3087;48.392;10.836;2022-10-16T03:13:53;15.80;99.90
6114;DHT22;3087;48.392;10.836;2022-10-16T03:16:19;15.80;99.90
6114;DHT22;3087;48.392;10.836;2022-10-16T03:18:48;15.80;99.90
6114;DHT22;3087;48.392;10.836;2022-10-16T03:21:14;15.70;99.90
6114;DHT22;3087;48.392;10.836;2022-10-16T03:23:40;15.60;99.90
6114;DHT22;3087;48.392;10.836;2022-10-16T03:26:06;15.60;99.90
6114;DHT22;3087;48.392;10.836;2022-10-16T03:28:31;15.60;99.90
6114;DHT22;3087;48.392;10.836;2022-10-16T03:30:57;15.60;99.90
6114;DHT22;3087;48.392;10.836;2022-10-16T03:35:53;15.50;99.90
6114;DHT22;3087;48.392;10.836;2022-10-16T03:38:19;15.50;99.90
6114;DHT22;3087;48.392;10.836;2022-10-16T03:40:45;15.50;99.90
6114;DHT22;3087;48.392;10.836;2022-10-16T03:43:10;15.50;99.90
6114;DHT22;3087;48.392;10.836;2022-10-16T03:45:36;15.60;99.90
6114;DHT22;3087;48.392;10.836;2022-10-16T03:48:02;15.60;99.90
6114;DHT22;3087;48.392;10.836;2022-10-16T03:50:29;15.60;99.90
6114;DHT22;3087;48.392;10.836;2022-10-16T03:52:54;15.60;99.90
6114;DHT22;3087;48.392;10.836;2022-10-16T03:55:20;15.60;99.90
6114;DHT22;3087;48.392;10.836;2022-10-16T03:57:46;15.50;99.90
6114;DHT22;3087;48.392;10.836;2022-10-16T04:00:12;15.60;99.90
6114;DHT22;3087;48.392;10.836;2022-10-16T04:02:38;15.50;99.90
6114;DHT22;3087;48.392;10.836;2022-10-16T04:05:03;15.60;99.90
6114;DHT22;3087;48.392;10.836;2022-10-16T04:07:29;15.50;99.90
6114;DHT22;3087;48.392;10.836;2022-10-16T04:09:55;15.40;99.90
6114;DHT22;3087;48.392;10.836;2022-10-16T04:12:21;15.30;99.90
6114;DHT22;3087;48.392;10.836;2022-10-16T04:19:38;15.30;99.90
6114;DHT22;3087;48.392;10.836;2022-10-16T04:22:04;15.30;99.90
6114;DHT22;3087;48.392;10.836;2022-10-16T04:24:29;15.30;99.90
6114;DHT22;3087;48.392;10.836;2022-10-16T04:31:47;15.40;99.90
6114;DHT22;3087;48.392;10.836;2022-10-16T04:34:13;15.50;99.90
6114;DHT22;3087;48.392;10.836;2022-10-16T04:36:38;15.50;99.90
6114;DHT22;3087;48.392;10.836;2022-10-16T04:39:04;15.50;99.90
6114;DHT22;3087;48.392;10.836;2022-10-16T04:48:47;15.50;99.90
6114;DHT22;3087;48.392;10.836;2022-10-16T04:53:39;15.50;99.90
6114;DHT22;3087;48.392;10.836;2022-10-16T04:56:05;15.40;99.90
6114;DHT22;3087;48.392;10.836;2022-10-16T04:58:30;15.30;99.90
6114;DHT22;3087;48.392;10.836;2022-10-16T05:03:22;15.20;99.90
6114;DHT22;3087;48.392;10.836;2022-10-16T05:05:47;15.20;99.90
6114;DHT22;3087;48.392;10.836;2022-10-16T05:08:14;15.20;99.90
6114;DHT22;3087;48.392;10.836;2022-10-16T05:10:43;15.20;99.90
6114;DHT22;3087;48.392;10.836;2022-10-16T05:13:09;15.20;99.90
6114;DHT22;3087;48.392;10.836;2022-10-16T05:15:36;15.20;99.90
6114;DHT22;3087;48.392;10.836;2022-10-16T05:18:02;15.10;99.90
6114;DHT22;3087;48.392;10.836;2022-10-16T05:20:28;15.10;99.90
6114;DHT22;3087;48.392;10.836;2022-10-16T05:22:53;15.00;99.90
6114;DHT22;3087;48.392;10.836;2022-10-16T05:25:19;15.00;99.90
6114;DHT22;3087;48.392;10.836;2022-10-16T05:27:48;14.90;99.90
6114;DHT22;3087;48.392;10.836;2022-10-16T05:30:14;15.00;99.90
6114;DHT22;3087;48.392;10.836;2022-10-16T05:32:40;14.90;99.90
6114;DHT22;3087;48.392;10.836;2022-10-16T05:37:31;14.90;99.90
6114;DHT22;3087;48.392;10.836;2022-10-16T05:39:57;14.90;99.90
6114;DHT22;3087;48.392;10.836;2022-10-16T05:42:23;14.90;99.90
6114;DHT22;3087;48.392;10.836;2022-10-16T05:44:48;15.00;99.90
6114;DHT22;3087;48.392;10.836;2022-10-16T05:47:14;15.00;99.90
6114;DHT22;3087;48.392;10.836;2022-10-16T05:49:40;15.00;99.90
6114;DHT22;3087;48.392;10.836;2022-10-16T05:52:06;15.00;99.90
6114;DHT22;3087;48.392;10.836;2022-10-16T05:54:31;15.00;99.90
6114;DHT22;3087;48.392;10.836;2022-10-16T05:56:57;15.00;99.90
6114;DHT22;3087;48.392;10.836;2022-10-16T06:01:48;15.00;99.90
6114;DHT22;3087;48.392;10.836;2022-10-16T06:04:14;15.10;99.90
6114;DHT22;3087;48.392;10.836;2022-10-16T06:06:40;15.10;99.90
6114;DHT22;3087;48.392;10.836;2022-10-16T06:11:32;15.20;99.90
6114;DHT22;3087;48.392;10.836;2022-10-16T06:14:00;15.30;99.90
6114;DHT22;3087;48.392;10.836;2022-10-16T06:18:54;15.40;99.90
6114;DHT22;3087;48.392;10.836;2022-10-16T06:21:23;15.40;99.90
6114;DHT22;3087;48.392;10.836;2022-10-16T06:23:52;15.40;99.90
6114;DHT22;3087;48.392;10.836;2022-10-16T06:26:20;15.40;99.90
6114;DHT22;3087;48.392;10.836;2022-10-16T06:28:47;15.40;99.90
6114;DHT22;3087;48.392;10.836;2022-10-16T06:31:13;15.40;99.90
6114;DHT22;3087;48.392;10.836;2022-10-16T06:33:39;15.40;99.90
6114;DHT22;3087;48.392;10.836;2022-10-16T06:36:10;15.50;99.90
6114;DHT22;3087;48.392;10.836;2022-10-16T06:38:37;15.50;99.90
6114;DHT22;3087;48.392;10.836;2022-10-16T06:41:04;15.60;99.90
6114;DHT22;3087;48.392;10.836;2022-10-16T06:43:30;15.70;99.90
6114;DHT22;3087;48.392;10.836;2022-10-16T06:46:03;15.80;99.90
6114;DHT22;3087;48.392;10.836;2022-10-16T06:48:29;15.80;99.90
6114;DHT22;3087;48.392;10.836;2022-10-16T06:51:16;15.90;99.90
6114;DHT22;3087;48.392;10.836;2022-10-16T06:53:44;16.00;99.90
6114;DHT22;3087;48.392;10.836;2022-10-16T06:56:13;15.90;99.90
6114;DHT22;3087;48.392;10.836;2022-10-16T06:58:39;16.00;99.90
6114;DHT22;3087;48.392;10.836;2022-10-16T07:01:06;16.00;99.90
6114;DHT22;3087;48.392;10.836;2022-10-16T07:03:32;16.00;99.90
6114;DHT22;3087;48.392;10.836;2022-10-16T07:06:02;16.10;99.90
6114;DHT22;3087;48.392;10.836;2022-10-16T07:08:34;16.10;99.90
6114;DHT22;3087;48.392;10.836;2022-10-16T07:11:05;16.20;99.90
6114;DHT22;3087;48.392;10.836;2022-10-16T07:13:34;16.30;99.90
6114;DHT22;3087;48.392;10.836;2022-10-16T07:16:12;16.30;99.90
6114;DHT22;3087;48.392;10.836;2022-10-16T07:18:38;16.40;99.90
6114;DHT22;3087;48.392;10.836;2022-10-16T07:21:07;16.50;99.90
6114;DHT22;3087;48.392;10.836;2022-10-16T07:23:33;16.60;99.90
6114;DHT22;3087;48.392;10.836;2022-10-16T07:25:59;16.70;99.90
6114;DHT22;3087;48.392;10.836;2022-10-16T07:28:24;16.70;99.90
6114;DHT22;3087;48.392;10.836;2022-10-16T07:30:50;16.80;99.90
6114;DHT22;3087;48.392;10.836;2022-10-16T07:33:16;16.80;99.90
6114;DHT22;3087;48.392;10.836;2022-10-16T07:35:52;16.90;99.90
6114;DHT22;3087;48.392;10.836;2022-10-16T07:38:18;16.90;99.90
6114;DHT22;3087;48.392;10.836;2022-10-16T07:40:44;16.90;99.90
6114;DHT22;3087;48.392;10.836;2022-10-16T07:43:09;16.90;99.90
6114;DHT22;3087;48.392;10.836;2022-10-16T07:45:35;17.00;99.90
6114;DHT22;3087;48.392;10.836;2022-10-16T07:48:01;17.10;99.90
6114;DHT22;3087;48.392;10.836;2022-10-16T07:52:52;17.30;99.90
6114;DHT22;3087;48.392;10.836;2022-10-16T07:55:18;17.30;99.90
6114;DHT22;3087;48.392;10.836;2022-10-16T07:57:43;17.40;99.90
6114;DHT22;3087;48.392;10.836;2022-10-16T08:02:40;17.60;99.90
6114;DHT22;3087;48.392;10.836;2022-10-16T08:05:06;18.00;99.90
6114;DHT22;3087;48.392;10.836;2022-10-16T08:07:33;17.90;99.90
6114;DHT22;3087;48.392;10.836;2022-10-16T08:09:58;18.00;99.90
6114;DHT22;3087;48.392;10.836;2022-10-16T08:12:25;18.00;99.90
6114;DHT22;3087;48.392;10.836;2022-10-16T08:14:51;18.20;99.90
6114;DHT22;3087;48.392;10.836;2022-10-16T08:17:16;18.30;99.90
6114;DHT22;3087;48.392;10.836;2022-10-16T08:19:46;18.30;99.90
6114;DHT22;3087;48.392;10.836;2022-10-16T08:22:13;18.50;99.90
6114;DHT22;3087;48.392;10.836;2022-10-16T08:24:39;18.50;99.90
6114;DHT22;3087;48.392;10.836;2022-10-16T08:27:05;18.70;99.90
6114;DHT22;3087;48.392;10.836;2022-10-16T08:29:31;18.80;99.90
6114;DHT22;3087;48.392;10.836;2022-10-16T08:31:56;18.90;99.90
6114;DHT22;3087;48.392;10.836;2022-10-16T08:34:22;19.00;99.90
6114;DHT22;3087;48.392;10.836;2022-10-16T08:36:47;19.10;99.90
6114;DHT22;3087;48.392;10.836;2022-10-16T08:39:13;19.20;99.90
6114;DHT22;3087;48.392;10.836;2022-10-16T08:50:42;19.90;99.90
6114;DHT22;3087;48.392;10.836;2022-10-16T08:53:15;20.10;99.90
6114;DHT22;3087;48.392;10.836;2022-10-16T08:55:52;20.80;99.90
6114;DHT22;3087;48.392;10.836;2022-10-16T08:58:23;20.50;99.90
6114;DHT22;3087;48.392;10.836;2022-10-16T09:00:57;20.70;99.90
6114;DHT22;3087;48.392;10.836;2022-10-16T09:04:00;20.90;99.90
6114;DHT22;3087;48.392;10.836;2022-10-16T09:09:32;21.30;99.90
6114;DHT22;3087;48.392;10.836;2022-10-16T09:12:36;21.40;99.90
6114;DHT22;3087;48.392;10.836;2022-10-16T09:17:49;21.60;99.90
6114;DHT22;3087;48.392;10.836;2022-10-16T09:22:46;21.60;99.90
6114;DHT22;3087;48.392;10.836;2022-10-16T09:25:17;21.70;99.90
6114;DHT22;3087;48.392;10.836;2022-10-16T09:27:48;21.90;99.90
6114;DHT22;3087;48.392;10.836;2022-10-16T09:30:18;22.00;99.90
6114;DHT22;3087;48.392;10.836;2022-10-16T09:32:47;22.10;99.90
6114;DHT22;3087;48.392;10.836;2022-10-16T09:35:23;22.10;99.90
6114;DHT22;3087;48.392;10.836;2022-10-16T09:37:54;22.20;99.90
6114;DHT22;3087;48.392;10.836;2022-10-16T09:40:30;22.40;99.90
6114;DHT22;3087;48.392;10.836;2022-10-16T09:45:57;22.40;99.90
6114;DHT22;3087;48.392;10.836;2022-10-16T09:48:27;22.40;99.90
6114;DHT22;3087;48.392;10.836;2022-10-16T09:51:02;22.50;99.90
6114;DHT22;3087;48.392;10.836;2022-10-16T09:53:43;22.50;99.90
6114;DHT22;3087;48.392;10.836;2022-10-16T09:56:11;22.50;99.90
6114;DHT22;3087;48.392;10.836;2022-10-16T09:58:42;22.50;99.90
6114;DHT22;3087;48.392;10.836;2022-10-16T10:01:13;22.60;99.90
6114;DHT22;3087;48.392;10.836;2022-10-16T10:03:41;22.60;99.90
6114;DHT22;3087;48.392;10.836;2022-10-16T10:06:23;22.70;99.90
6114;DHT22;3087;48.392;10.836;2022-10-16T10:08:58;22.80;99.90
6114;DHT22;3087;48.392;10.836;2022-10-16T10:19:18;24.20;99.90
6114;DHT22;3087;48.392;10.836;2022-10-16T10:21:45;24.20;99.90
6114;DHT22;3087;48.392;10.836;2022-10-16T10:24:15;24.20;99.90
6114;DHT22;3087;48.392;10.836;2022-10-16T10:27:09;24.10;99.90
6114;DHT22;3087;48.392;10.836;2022-10-16T10:46:56;24.80;99.90
6114;DHT22;3087;48.392;10.836;2022-10-16T10:54:35;26.70;99.90
6114;DHT22;3087;48.392;10.836;2022-10-16T10:57:21;26.80;99.90
6114;DHT22;3087;48.392;10.836;2022-10-16T11:03:13;27.20;99.90
6114;DHT22;3087;48.392;10.836;2022-10-16T11:05:47;27.30;99.90
6114;DHT22;3087;48.392;10.836;2022-10-16T11:08:52;26.90;99.90
6114;DHT22;3087;48.392;10.836;2022-10-16T11:11:24;26.70;99.90
6114;DHT22;3087;48.392;10.836;2022-10-16T11:16:29;26.50;99.90
6114;DHT22;3087;48.392;10.836;2022-10-16T11:21:54;26.50;99.90
6114;DHT22;3087;48.392;10.836;2022-10-16T11:24:23;26.60;99.90
6114;DHT22;3087;48.392;10.836;2022-10-16T11:26:54;26.80;99.90
6114;DHT22;3087;48.392;10.836;2022-10-16T11:29:26;26.80;99.90
6114;DHT22;3087;48.392;10.836;2022-10-16T11:32:01;26.80;99.90
6114;DHT22;3087;48.392;10.836;2022-10-16T11:34:36;27.10;99.90
6114;DHT22;3087;48.392;10.836;2022-10-16T11:37:24;27.50;99.90
6114;DHT22;3087;48.392;10.836;2022-10-16T11:39:52;27.30;99.90
6114;DHT22;3087;48.392;10.836;2022-10-16T11:42:41;27.00;99.90
6114;DHT22;3087;48.392;10.836;2022-10-16T11:48:05;26.80;99.90
6114;DHT22;3087;48.392;10.836;2022-10-16T11:50:46;26.90;99.90
6114;DHT22;3087;48.392;10.836;2022-10-16T11:56:01;26.40;99.90
6114;DHT22;3087;48.392;10.836;2022-10-16T11:58:41;26.20;99.90
6114;DHT22;3087;48.392;10.836;2022-10-16T12:01:28;26.20;99.90
6114;DHT22;3087;48.392;10.836;2022-10-16T12:04:05;26.40;99.90
6114;DHT22;3087;48.392;10.836;2022-10-16T12:06:36;26.20;99.90
6114;DHT22;3087;48.392;10.836;2022-10-16T12:09:03;26.20;99.90
6114;DHT22;3087;48.392;10.836;2022-10-16T12:16:56;27.00;99.90
6114;DHT22;3087;48.392;10.836;2022-10-16T12:19:25;27.50;99.90
6114;DHT22;3087;48.392;10.836;2022-10-16T12:21:52;27.70;99.90
6114;DHT22;3087;48.392;10.836;2022-10-16T12:24:39;27.90;99.90
6114;DHT22;3087;48.392;10.836;2022-10-16T12:30:01;27.80;99.90
6114;DHT22;3087;48.392;10.836;2022-10-16T12:32:36;27.70;99.90
6114;DHT22;3087;48.392;10.836;2022-10-16T12:35:18;27.70;99.90
6114;DHT22;3087;48.392;10.836;2022-10-16T12:37:45;28.10;99.90
6114;DHT22;3087;48.392;10.836;2022-10-16T12:40:23;28.30;99.90
6114;DHT22;3087;48.392;10.836;2022-10-16T12:42:49;28.50;99.90
6114;DHT22;3087;48.392;10.836;2022-10-16T12:47:54;29.30;99.90
6114;DHT22;3087;48.392;10.836;2022-10-16T12:52:53;29.70;99.90
6114;DHT22;3087;48.392;10.836;2022-10-16T12:55:21;29.90;99.90
6114;DHT22;3087;48.392;10.836;2022-10-16T13:00:39;30.20;99.90
6114;DHT22;3087;48.392;10.836;2022-10-16T13:04:02;30.40;99.90
6114;DHT22;3087;48.392;10.836;2022-10-16T13:17:02;30.50;99.90
6114;DHT22;3087;48.392;10.836;2022-10-16T13:19:38;30.60;99.90
6114;DHT22;3087;48.392;10.836;2022-10-16T13:22:27;30.70;99.90
6114;DHT22;3087;48.392;10.836;2022-10-16T13:25:31;30.60;99.90
6114;DHT22;3087;48.392;10.836;2022-10-16T13:28:01;30.60;99.90
6114;DHT22;3087;48.392;10.836;2022-10-16T13:30:29;30.70;99.90
6114;DHT22;3087;48.392;10.836;2022-10-16T13:33:04;30.70;99.90
6114;DHT22;3087;48.392;10.836;2022-10-16T13:35:34;30.50;99.90
6114;DHT22;3087;48.392;10.836;2022-10-16T13:40:29;30.00;99.90
6114;DHT22;3087;48.392;10.836;2022-10-16T13:42:54;30.10;99.90
6114;DHT22;3087;48.392;10.836;2022-10-16T13:45:23;30.30;99.90
6114;DHT22;3087;48.392;10.836;2022-10-16T13:48:01;30.40;99.90
6114;DHT22;3087;48.392;10.836;2022-10-16T13:50:26;30.40;99.90
6114;DHT22;3087;48.392;10.836;2022-10-16T13:52:54;30.40;99.90
6114;DHT22;3087;48.392;10.836;2022-10-16T13:55:28;30.30;99.90
6114;DHT22;3087;48.392;10.836;2022-10-16T13:58:08;30.20;99.90
6114;DHT22;3087;48.392;10.836;2022-10-16T14:00:34;30.00;99.90
6114;DHT22;3087;48.392;10.836;2022-10-16T14:03:06;29.80;99.90
6114;DHT22;3087;48.392;10.836;2022-10-16T14:05:33;29.50;99.90
6114;DHT22;3087;48.392;10.836;2022-10-16T14:08:00;29.10;99.90
6114;DHT22;3087;48.392;10.836;2022-10-16T14:10:29;28.50;99.90
6114;DHT22;3087;48.392;10.836;2022-10-16T14:13:02;28.30;99.90
6114;DHT22;3087;48.392;10.836;2022-10-16T14:15:30;28.20;99.90
6114;DHT22;3087;48.392;10.836;2022-10-16T14:17:56;28.00;99.90
6114;DHT22;3087;48.392;10.836;2022-10-16T14:20:29;27.90;99.90
6114;DHT22;3087;48.392;10.836;2022-10-16T14:23:29;27.70;99.90
6114;DHT22;3087;48.392;10.836;2022-10-16T14:26:06;27.40;99.90
6114;DHT22;3087;48.392;10.836;2022-10-16T14:28:41;27.20;99.90
6114;DHT22;3087;48.392;10.836;2022-10-16T14:31:28;27.10;99.90
6114;DHT22;3087;48.392;10.836;2022-10-16T14:33:54;26.90;99.90
6114;DHT22;3087;48.392;10.836;2022-10-16T14:36:20;26.80;99.90
6114;DHT22;3087;48.392;10.836;2022-10-16T14:39:17;26.60;99.90
6114;DHT22;3087;48.392;10.836;2022-10-16T14:41:47;26.50;99.90
6114;DHT22;3087;48.392;10.836;2022-10-16T14:44:14;26.40;99.90
6114;DHT22;3087;48.392;10.836;2022-10-16T14:46:42;26.20;99.90
6114;DHT22;3087;48.392;10.836;2022-10-16T14:49:16;26.20;99.90
6114;DHT22;3087;48.392;10.836;2022-10-16T14:54:12;26.00;99.90
6114;DHT22;3087;48.392;10.836;2022-10-16T14:56:47;25.80;99.90
6114;DHT22;3087;48.392;10.836;2022-10-16T14:59:27;25.90;99.90
6114;DHT22;3087;48.392;10.836;2022-10-16T15:01:54;25.60;99.90
6114;DHT22;3087;48.392;10.836;2022-10-16T15:04:19;25.40;99.90
6114;DHT22;3087;48.392;10.836;2022-10-16T15:06:45;25.30;99.90
6114;DHT22;3087;48.392;10.836;2022-10-16T15:09:11;25.20;99.90
6114;DHT22;3087;48.392;10.836;2022-10-16T15:11:37;25.10;99.90
6114;DHT22;3087;48.392;10.836;2022-10-16T15:14:03;25.00;99.90
6114;DHT22;3087;48.392;10.836;2022-10-16T15:16:29;25.00;99.90
6114;DHT22;3087;48.392;10.836;2022-10-16T15:18:55;24.90;99.90
6114;DHT22;3087;48.392;10.836;2022-10-16T15:21:24;24.80;99.90
6114;DHT22;3087;48.392;10.836;2022-10-16T15:23:51;24.70;99.90
6114;DHT22;3087;48.392;10.836;2022-10-16T15:26:17;24.70;99.90
6114;DHT22;3087;48.392;10.836;2022-10-16T15:28:43;24.60;99.90
6114;DHT22;3087;48.392;10.836;2022-10-16T15:31:08;24.60;99.90
6114;DHT22;3087;48.392;10.836;2022-10-16T15:33:34;24.60;99.90
6114;DHT22;3087;48.392;10.836;2022-10-16T15:36:01;24.60;99.90
6114;DHT22;3087;48.392;10.836;2022-10-16T15:38:28;24.50;99.90
6114;DHT22;3087;48.392;10.836;2022-10-16T15:40:54;24.50;99.90
6114;DHT22;3087;48.392;10.836;2022-10-16T15:43:19;24.50;99.90
6114;DHT22;3087;48.392;10.836;2022-10-16T15:46:02;24.40;99.90
6114;DHT22;3087;48.392;10.836;2022-10-16T15:48:28;24.40;99.90
6114;DHT22;3087;48.392;10.836;2022-10-16T15:50:54;24.40;99.90
6114;DHT22;3087;48.392;10.836;2022-10-16T15:53:20;24.40;99.90
6114;DHT22;3087;48.392;10.836;2022-10-16T15:55:45;24.30;99.90
6114;DHT22;3087;48.392;10.836;2022-10-16T15:58:11;24.30;99.90
6114;DHT22;3087;48.392;10.836;2022-10-16T16:00:37;24.30;99.90
6114;DHT22;3087;48.392;10.836;2022-10-16T16:03:03;24.20;99.90
6114;DHT22;3087;48.392;10.836;2022-10-16T16:05:29;24.10;99.90
6114;DHT22;3087;48.392;10.836;2022-10-16T16:07:54;24.10;99.90
6114;DHT22;3087;48.392;10.836;2022-10-16T16:10:20;24.00;99.90
6114;DHT22;3087;48.392;10.836;2022-10-16T16:12:49;23.90;99.90
6114;DHT22;3087;48.392;10.836;2022-10-16T16:15:22;23.90;99.90
6114;DHT22;3087;48.392;10.836;2022-10-16T16:17:48;23.70;99.90
6114;DHT22;3087;48.392;10.836;2022-10-16T16:20:14;23.60;99.90
6114;DHT22;3087;48.392;10.836;2022-10-16T16:22:41;23.50;99.90
6114;DHT22;3087;48.392;10.836;2022-10-16T16:25:07;23.40;99.90
6114;DHT22;3087;48.392;10.836;2022-10-16T16:27:32;23.40;99.90
6114;DHT22;3087;48.392;10.836;2022-10-16T16:30:00;23.30;99.90
6114;DHT22;3087;48.392;10.836;2022-10-16T16:32:26;23.20;99.90
6114;DHT22;3087;48.392;10.836;2022-10-16T16:34:51;23.10;99.90
6114;DHT22;3087;48.392;10.836;2022-10-16T16:37:17;23.00;99.90
6114;DHT22;3087;48.392;10.836;2022-10-16T16:39:43;22.90;99.90
6114;DHT22;3087;48.392;10.836;2022-10-16T16:42:08;22.70;99.90
6114;DHT22;3087;48.392;10.836;2022-10-16T16:44:35;22.50;99.90
6114;DHT22;3087;48.392;10.836;2022-10-16T16:47:02;22.50;99.90
6114;DHT22;3087;48.392;10.836;2022-10-16T16:49:28;22.40;99.90
6114;DHT22;3087;48.392;10.836;2022-10-16T16:51:54;22.40;99.90
6114;DHT22;3087;48.392;10.836;2022-10-16T16:54:20;22.40;99.90
6114;DHT22;3087;48.392;10.836;2022-10-16T16:56:45;22.40;99.90
6114;DHT22;3087;48.392;10.836;2022-10-16T16:59:20;22.30;99.90
6114;DHT22;3087;48.392;10.836;2022-10-16T17:01:47;22.20;99.90
6114;DHT22;3087;48.392;10.836;2022-10-16T17:04:13;22.20;99.90
6114;DHT22;3087;48.392;10.836;2022-10-16T17:06:41;22.20;99.90
6114;DHT22;3087;48.392;10.836;2022-10-16T17:09:07;22.20;99.90
6114;DHT22;3087;48.392;10.836;2022-10-16T17:11:33;22.20;99.90
6114;DHT22;3087;48.392;10.836;2022-10-16T17:13:59;22.10;99.90
6114;DHT22;3087;48.392;10.836;2022-10-16T17:16:34;22.10;99.90
6114;DHT22;3087;48.392;10.836;2022-10-16T17:19:01;22.10;99.90
6114;DHT22;3087;48.392;10.836;2022-10-16T17:21:27;22.10;99.90
6114;DHT22;3087;48.392;10.836;2022-10-16T17:23:55;22.00;99.90
6114;DHT22;3087;48.392;10.836;2022-10-16T17:26:20;22.00;99.90
6114;DHT22;3087;48.392;10.836;2022-10-16T17:28:51;22.00;99.90
6114;DHT22;3087;48.392;10.836;2022-10-16T17:31:20;22.00;99.90
6114;DHT22;3087;48.392;10.836;2022-10-16T17:33:46;22.00;99.90
6114;DHT22;3087;48.392;10.836;2022-10-16T17:36:12;21.90;99.90
6114;DHT22;3087;48.392;10.836;2022-10-16T17:38:39;21.90;99.90
6114;DHT22;3087;48.392;10.836;2022-10-16T17:41:16;21.90;99.90
6114;DHT22;3087;48.392;10.836;2022-10-16T17:43:43;21.90;99.90
6114;DHT22;3087;48.392;10.836;2022-10-16T17:46:09;21.70;99.90
6114;DHT22;3087;48.392;10.836;2022-10-16T17:48:37;21.50;99.90
6114;DHT22;3087;48.392;10.836;2022-10-16T17:51:05;21.40;99.90
6114;DHT22;3087;48.392;10.836;2022-10-16T17:53:31;21.20;99.90
6114;DHT22;3087;48.392;10.836;2022-10-16T17:56:04;21.00;99.90
6114;DHT22;3087;48.392;10.836;2022-10-16T17:58:30;20.90;99.90
6114;DHT22;3087;48.392;10.836;2022-10-16T18:00:56;20.80;99.90
6114;DHT22;3087;48.392;10.836;2022-10-16T18:03:21;20.70;99.90
6114;DHT22;3087;48.392;10.836;2022-10-16T18:05:47;20.60;99.90
6114;DHT22;3087;48.392;10.836;2022-10-16T18:08:13;20.60;99.90
6114;DHT22;3087;48.392;10.836;2022-10-16T18:10:46;20.50;99.90
6114;DHT22;3087;48.392;10.836;2022-10-16T18:13:12;20.50;99.90
6114;DHT22;3087;48.392;10.836;2022-10-16T18:15:39;20.50;99.90
6114;DHT22;3087;48.392;10.836;2022-10-16T18:18:04;20.50;99.90
6114;DHT22;3087;48.392;10.836;2022-10-16T18:20:31;20.50;99.90
6114;DHT22;3087;48.392;10.836;2022-10-16T18:22:56;20.50;99.90
6114;DHT22;3087;48.392;10.836;2022-10-16T18:25:22;20.50;99.90
6114;DHT22;3087;48.392;10.836;2022-10-16T18:27:47;20.50;99.90
6114;DHT22;3087;48.392;10.836;2022-10-16T18:30:13;20.40;99.90
6114;DHT22;3087;48.392;10.836;2022-10-16T18:32:39;20.50;99.90
6114;DHT22;3087;48.392;10.836;2022-10-16T18:35:05;20.50;99.90
6114;DHT22;3087;48.392;10.836;2022-10-16T18:37:31;20.40;99.90
6114;DHT22;3087;48.392;10.836;2022-10-16T18:39:59;20.20;99.90
6114;DHT22;3087;48.392;10.836;2022-10-16T18:42:24;20.10;99.90